sensor_id;sensor_type;location;lat;lon;timestamp;pressure;altitude;pressure_sealevel;temperature;humidity
11099;BME280;12223;42.650;23.364;2023-03-13T00:01:26;94992.03;;;1.50;68.74
11099;BME280;12223;42.650;23.364;2023-03-13T00:03:53;94986.50;;;1.53;67.78
11099;BME280;12223;42.650;23.364;2023-03-13T00:06:22;94992.03;;;1.50;68.22
11099;BME280;12223;42.650;23.364;2023-03-13T00:08:53;94985.03;;;1.51;68.96
11099;BME280;12223;42.650;23.364;2023-03-13T00:11:20;94987.81;;;1.49;70.56
11099;BME280;12223;42.650;23.364;2023-03-13T00:14:11;94937.13;;;1.11;71.02
11099;BME280;12223;42.650;23.364;2023-03-13T00:16:52;94990.69;;;1.38;71.18
11099;BME280;12223;42.650;23.364;2023-03-13T00:19:19;94989.88;;;1.38;70.52
11099;BME280;12223;42.650;23.364;2023-03-13T00:21:48;94990.19;;;1.35;70.61
11099;BME280;12223;42.650;23.364;2023-03-13T00:24:15;94995.53;;;1.33;70.03
11099;BME280;12223;42.650;23.364;2023-03-13T00:26:42;94994.38;;;1.28;71.03
11099;BME280;12223;42.650;23.364;2023-03-13T00:29:09;94992.44;;;1.30;70.76
11099;BME280;12223;42.650;23.364;2023-03-13T00:31:36;94996.34;;;1.26;70.59
11099;BME280;12223;42.650;23.364;2023-03-13T00:34:03;94995.53;;;1.33;69.76
11099;BME280;12223;42.650;23.364;2023-03-13T00:36:32;95000.75;;;1.33;69.60
11099;BME280;12223;42.650;23.364;2023-03-13T00:39:02;94999.28;;;1.31;69.87
11099;BME280;12223;42.650;23.364;2023-03-13T00:41:31;95000.69;;;1.17;70.34
11099;BME280;12223;42.650;23.364;2023-03-13T00:43:58;94999.56;;;1.19;70.52
11099;BME280;12223;42.650;23.364;2023-03-13T00:46:26;94987.50;;;1.10;71.15
11099;BME280;12223;42.650;23.364;2023-03-13T00:48:54;95009.16;;;1.19;71.91
11099;BME280;12223;42.650;23.364;2023-03-13T00:51:22;94999.06;;;1.16;71.26
11099;BME280;12223;42.650;23.364;2023-03-13T00:53:56;94992.88;;;1.17;70.92
11099;BME280;12223;42.650;23.364;2023-03-13T00:56:27;94991.25;;;1.16;70.46
11099;BME280;12223;42.650;23.364;2023-03-13T00:58:54;94988.16;;;1.12;70.77
11099;BME280;12223;42.650;23.364;2023-03-13T01:01:23;94984.22;;;1.08;70.85
11099;BME280;12223;42.650;23.364;2023-03-13T01:03:52;94995.63;;;1.07;70.55
11099;BME280;12223;42.650;23.364;2023-03-13T01:06:23;95007.00;;;1.06;71.28
11099;BME280;12223;42.650;23.364;2023-03-13T01:08:50;95002.84;;;0.96;71.12
11099;BME280;12223;42.650;23.364;2023-03-13T01:11:19;95003.47;;;0.82;72.31
11099;BME280;12223;42.650;23.364;2023-03-13T01:13:48;94999.16;;;0.98;72.11
11099;BME280;12223;42.650;23.364;2023-03-13T01:16:18;95005.97;;;0.99;71.83
11099;BME280;12223;42.650;23.364;2023-03-13T01:18:47;94995.34;;;0.85;72.06
11099;BME280;12223;42.650;23.364;2023-03-13T01:21:15;94998.47;;;0.96;71.28
11099;BME280;12223;42.650;23.364;2023-03-13T01:23:44;94996.22;;;1.01;71.48
11099;BME280;12223;42.650;23.364;2023-03-13T01:26:11;94994.44;;;1.02;71.08
11099;BME280;12223;42.650;23.364;2023-03-13T01:28:38;94990.94;;;0.85;71.34
11099;BME280;12223;42.650;23.364;2023-03-13T01:31:14;94997.78;;;0.86;71.62
11099;BME280;12223;42.650;23.364;2023-03-13T01:33:43;95002.25;;;0.76;73.58
11099;BME280;12223;42.650;23.364;2023-03-13T01:36:11;94995.88;;;0.62;76.56
11099;BME280;12223;42.650;23.364;2023-03-13T01:38:38;95009.50;;;0.64;78.48
11099;BME280;12223;42.650;23.364;2023-03-13T01:41:10;95012.88;;;0.57;81.23
11099;BME280;12223;42.650;23.364;2023-03-13T01:43:37;95019.00;;;0.48;82.06
11099;BME280;12223;42.650;23.364;2023-03-13T01:46:13;95016.94;;;0.33;83.70
11099;BME280;12223;42.650;23.364;2023-03-13T01:48:48;95018.06;;;0.31;84.72
11099;BME280;12223;42.650;23.364;2023-03-13T01:51:20;94964.06;;;-0.19;84.59
11099;BME280;12223;42.650;23.364;2023-03-13T01:53:52;95012.28;;;0.02;86.16
11099;BME280;12223;42.650;23.364;2023-03-13T01:56:31;95019.44;;;-0.01;88.57
11099;BME280;12223;42.650;23.364;2023-03-13T01:59:01;95018.06;;;-0.05;90.30
11099;BME280;12223;42.650;23.364;2023-03-13T02:01:29;95018.53;;;-0.09;91.39
11099;BME280;12223;42.650;23.364;2023-03-13T02:03:57;95003.41;;;-0.14;91.81
11099;BME280;12223;42.650;23.364;2023-03-13T02:06:26;94990.84;;;-0.36;92.77
11099;BME280;12223;42.650;23.364;2023-03-13T02:09:01;95021.19;;;-0.19;94.30
11099;BME280;12223;42.650;23.364;2023-03-13T02:11:36;94995.22;;;-0.36;94.88
11099;BME280;12223;42.650;23.364;2023-03-13T02:14:06;95023.50;;;-0.33;95.97
11099;BME280;12223;42.650;23.364;2023-03-13T02:16:35;95029.16;;;-0.48;97.17
11099;BME280;12223;42.650;23.364;2023-03-13T02:19:16;95022.66;;;-0.52;99.03
11099;BME280;12223;42.650;23.364;2023-03-13T02:21:48;95033.31;;;-0.55;100.00
11099;BME280;12223;42.650;23.364;2023-03-13T02:24:22;95044.34;;;-0.53;100.00
11099;BME280;12223;42.650;23.364;2023-03-13T02:27:08;95047.91;;;-0.54;100.00
11099;BME280;12223;42.650;23.364;2023-03-13T02:29:37;95045.59;;;-0.57;100.00
11099;BME280;12223;42.650;23.364;2023-03-13T02:32:05;95040.84;;;-0.61;100.00
11099;BME280;12223;42.650;23.364;2023-03-13T02:34:37;95057.22;;;-0.61;100.00
11099;BME280;12223;42.650;23.364;2023-03-13T02:37:06;95056.72;;;-0.64;100.00
11099;BME280;12223;42.650;23.364;2023-03-13T02:39:36;95063.81;;;-0.66;100.00
11099;BME280;12223;42.650;23.364;2023-03-13T02:42:04;95065.59;;;-0.67;100.00
11099;BME280;12223;42.650;23.364;2023-03-13T02:44:36;95070.91;;;-0.68;100.00
11099;BME280;12223;42.650;23.364;2023-03-13T02:47:07;95069.13;;;-0.68;100.00
11099;BME280;12223;42.650;23.364;2023-03-13T02:49:34;95067.13;;;-0.74;100.00
11099;BME280;12223;42.650;23.364;2023-03-13T02:52:08;95078.59;;;-0.76;100.00
11099;BME280;12223;42.650;23.364;2023-03-13T02:54:38;95086.09;;;-0.73;100.00
11099;BME280;12223;42.650;23.364;2023-03-13T02:57:06;95083.72;;;-0.67;100.00
11099;BME280;12223;42.650;23.364;2023-03-13T02:59:39;95090.44;;;-0.74;100.00
11099;BME280;12223;42.650;23.364;2023-03-13T03:02:06;95050.63;;;-1.19;100.00
11099;BME280;12223;42.650;23.364;2023-03-13T03:04:33;95066.88;;;-1.17;100.00
11099;BME280;12223;42.650;23.364;2023-03-13T03:07:00;95084.00;;;-1.07;100.00
11099;BME280;12223;42.650;23.364;2023-03-13T03:09:27;95074.22;;;-1.13;100.00
11099;BME280;12223;42.650;23.364;2023-03-13T03:11:54;95076.41;;;-1.08;100.00
11099;BME280;12223;42.650;23.364;2023-03-13T03:14:21;95084.00;;;-1.07;100.00
11099;BME280;12223;42.650;23.364;2023-03-13T03:16:50;95087.16;;;-1.13;100.00
11099;BME280;12223;42.650;23.364;2023-03-13T03:19:17;95096.44;;;-1.10;100.00
11099;BME280;12223;42.650;23.364;2023-03-13T03:21:44;95102.72;;;-1.13;100.00
11099;BME280;12223;42.650;23.364;2023-03-13T03:24:12;95111.47;;;-1.14;100.00
11099;BME280;12223;42.650;23.364;2023-03-13T03:26:39;95110.09;;;-1.18;100.00
11099;BME280;12223;42.650;23.364;2023-03-13T03:29:06;95118.56;;;-1.16;100.00
11099;BME280;12223;42.650;23.364;2023-03-13T03:31:33;95112.25;;;-1.13;100.00
11099;BME280;12223;42.650;23.364;2023-03-13T03:34:02;95122.19;;;-0.99;100.00
11099;BME280;12223;42.650;23.364;2023-03-13T03:36:29;95148.13;;;-0.99;100.00
11099;BME280;12223;42.650;23.364;2023-03-13T03:38:55;95125.91;;;-1.02;100.00
11099;BME280;12223;42.650;23.364;2023-03-13T03:41:22;95130.34;;;-0.94;100.00
11099;BME280;12223;42.650;23.364;2023-03-13T03:43:49;95135.28;;;-1.01;100.00
11099;BME280;12223;42.650;23.364;2023-03-13T03:46:16;95137.09;;;-1.01;100.00
11099;BME280;12223;42.650;23.364;2023-03-13T03:48:43;95131.25;;;-1.23;100.00
11099;BME280;12223;42.650;23.364;2023-03-13T03:51:13;95143.13;;;-1.30;100.00
11099;BME280;12223;42.650;23.364;2023-03-13T03:53:40;95150.50;;;-1.35;100.00
11099;BME280;12223;42.650;23.364;2023-03-13T03:56:07;95140.94;;;-1.44;100.00
11099;BME280;12223;42.650;23.364;2023-03-13T03:58:34;95144.47;;;-1.26;100.00
11099;BME280;12223;42.650;23.364;2023-03-13T04:01:01;95138.88;;;-1.31;100.00
11099;BME280;12223;42.650;23.364;2023-03-13T04:03:34;95145.72;;;-1.30;100.00
11099;BME280;12223;42.650;23.364;2023-03-13T04:06:03;95149.13;;;-1.29;100.00
11099;BME280;12223;42.650;23.364;2023-03-13T04:08:32;95159.75;;;-1.32;100.00
11099;BME280;12223;42.650;23.364;2023-03-13T04:10:59;95158.94;;;-1.42;100.00
11099;BME280;12223;42.650;23.364;2023-03-13T04:13:27;95155.53;;;-1.43;100.00
11099;BME280;12223;42.650;23.364;2023-03-13T04:15:58;95175.28;;;-1.51;100.00
11099;BME280;12223;42.650;23.364;2023-03-13T04:18:25;95183.47;;;-1.56;100.00
11099;BME280;12223;42.650;23.364;2023-03-13T04:20:59;95171.22;;;-1.54;100.00
11099;BME280;12223;42.650;23.364;2023-03-13T04:23:26;95172.16;;;-1.45;100.00
11099;BME280;12223;42.650;23.364;2023-03-13T04:25:54;95188.94;;;-1.49;100.00
11099;BME280;12223;42.650;23.364;2023-03-13T04:28:21;95183.22;;;-1.53;100.00
11099;BME280;12223;42.650;23.364;2023-03-13T04:30:54;95186.34;;;-1.49;100.00
11099;BME280;12223;42.650;23.364;2023-03-13T04:33:22;95197.25;;;-1.65;100.00
11099;BME280;12223;42.650;23.364;2023-03-13T04:35:49;95197.63;;;-1.79;100.00
11099;BME280;12223;42.650;23.364;2023-03-13T04:38:16;95209.75;;;-1.80;100.00
11099;BME280;12223;42.650;23.364;2023-03-13T04:40:42;95210.56;;;-1.79;100.00
11099;BME280;12223;42.650;23.364;2023-03-13T04:43:11;95208.81;;;-1.79;100.00
11099;BME280;12223;42.650;23.364;2023-03-13T04:45:38;95214.53;;;-1.75;100.00
11099;BME280;12223;42.650;23.364;2023-03-13T04:48:05;95217.00;;;-1.74;100.00
11099;BME280;12223;42.650;23.364;2023-03-13T04:50:32;95194.88;;;-1.97;100.00
11099;BME280;12223;42.650;23.364;2023-03-13T04:52:59;95202.06;;;-2.00;100.00
11099;BME280;12223;42.650;23.364;2023-03-13T04:55:25;95219.69;;;-1.85;100.00
11099;BME280;12223;42.650;23.364;2023-03-13T04:57:52;95227.31;;;-1.83;100.00
11099;BME280;12223;42.650;23.364;2023-03-13T05:00:22;95190.13;;;-1.82;100.00
11099;BME280;12223;42.650;23.364;2023-03-13T05:02:50;95214.44;;;-1.35;100.00
11099;BME280;12223;42.650;23.364;2023-03-13T05:05:17;95226.00;;;-0.82;100.00
11099;BME280;12223;42.650;23.364;2023-03-13T05:07:44;95234.50;;;-0.33;100.00
11099;BME280;12223;42.650;23.364;2023-03-13T05:10:11;95237.25;;;0.20;100.00
11099;BME280;12223;42.650;23.364;2023-03-13T05:12:38;95235.63;;;1.17;100.00
11099;BME280;12223;42.650;23.364;2023-03-13T05:15:05;95228.69;;;2.46;100.00
11099;BME280;12223;42.650;23.364;2023-03-13T05:17:34;95236.94;;;3.72;86.81
11099;BME280;12223;42.650;23.364;2023-03-13T05:20:01;95231.28;;;5.08;72.37
11099;BME280;12223;42.650;23.364;2023-03-13T05:22:30;95235.06;;;6.18;62.17
11099;BME280;12223;42.650;23.364;2023-03-13T05:24:57;95243.19;;;7.67;55.71
11099;BME280;12223;42.650;23.364;2023-03-13T05:27:24;95244.28;;;8.69;49.75
11099;BME280;12223;42.650;23.364;2023-03-13T05:29:51;95247.97;;;9.68;45.80
11099;BME280;12223;42.650;23.364;2023-03-13T05:32:17;95245.75;;;9.92;44.63
11099;BME280;12223;42.650;23.364;2023-03-13T05:34:46;95197.41;;;10.88;41.50
11099;BME280;12223;42.650;23.364;2023-03-13T05:37:13;95250.53;;;11.88;38.88
11099;BME280;12223;42.650;23.364;2023-03-13T05:39:39;95255.25;;;12.72;37.62
11099;BME280;12223;42.650;23.364;2023-03-13T05:42:06;95260.78;;;12.88;35.79
11099;BME280;12223;42.650;23.364;2023-03-13T05:44:33;95260.78;;;13.25;33.67
11099;BME280;12223;42.650;23.364;2023-03-13T05:47:01;95268.00;;;12.63;34.30
11099;BME280;12223;42.650;23.364;2023-03-13T05:49:27;95258.44;;;13.77;33.74
11099;BME280;12223;42.650;23.364;2023-03-13T05:51:56;95249.34;;;15.52;31.50
11099;BME280;12223;42.650;23.364;2023-03-13T05:54:24;95253.97;;;16.35;29.97
11099;BME280;12223;42.650;23.364;2023-03-13T05:56:50;95257.56;;;17.01;28.92
11099;BME280;12223;42.650;23.364;2023-03-13T05:59:17;95262.97;;;17.72;27.99
11099;BME280;12223;42.650;23.364;2023-03-13T06:01:44;95265.94;;;17.70;27.40
11099;BME280;12223;42.650;23.364;2023-03-13T06:04:11;95266.00;;;17.80;26.89
11099;BME280;12223;42.650;23.364;2023-03-13T06:06:38;95261.97;;;17.78;27.04
11099;BME280;12223;42.650;23.364;2023-03-13T06:09:07;95259.84;;;17.58;26.25
11099;BME280;12223;42.650;23.364;2023-03-13T06:11:37;95277.88;;;16.64;27.07
11099;BME280;12223;42.650;23.364;2023-03-13T06:14:04;95271.00;;;16.34;28.37
11099;BME280;12223;42.650;23.364;2023-03-13T06:16:31;95256.72;;;16.24;28.07
11099;BME280;12223;42.650;23.364;2023-03-13T06:18:58;95279.75;;;17.23;27.46
11099;BME280;12223;42.650;23.364;2023-03-13T06:21:26;95276.34;;;18.57;26.49
11099;BME280;12223;42.650;23.364;2023-03-13T06:23:53;95273.66;;;18.25;25.80
11099;BME280;12223;42.650;23.364;2023-03-13T06:26:22;95275.44;;;17.61;25.85
11099;BME280;12223;42.650;23.364;2023-03-13T06:28:51;95277.28;;;17.60;26.29
11099;BME280;12223;42.650;23.364;2023-03-13T06:31:18;95268.97;;;17.84;25.65
11099;BME280;12223;42.650;23.364;2023-03-13T06:33:45;95270.59;;;18.43;25.43
11099;BME280;12223;42.650;23.364;2023-03-13T06:36:12;95277.03;;;18.79;24.89
11099;BME280;12223;42.650;23.364;2023-03-13T06:38:41;95264.03;;;19.50;24.18
11099;BME280;12223;42.650;23.364;2023-03-13T06:41:08;95251.09;;;18.85;24.34
11099;BME280;12223;42.650;23.364;2023-03-13T06:43:36;95233.13;;;18.06;24.62
11099;BME280;12223;42.650;23.364;2023-03-13T06:46:05;95252.91;;;18.05;24.51
11099;BME280;12223;42.650;23.364;2023-03-13T06:48:33;95242.81;;;17.86;24.43
11099;BME280;12223;42.650;23.364;2023-03-13T06:51:00;95252.53;;;18.29;24.30
11099;BME280;12223;42.650;23.364;2023-03-13T06:53:28;95251.13;;;17.41;25.03
11099;BME280;12223;42.650;23.364;2023-03-13T06:55:59;95260.91;;;17.79;24.75
11099;BME280;12223;42.650;23.364;2023-03-13T06:58:26;95262.69;;;17.68;24.91
11099;BME280;12223;42.650;23.364;2023-03-13T07:00:55;95266.94;;;16.32;25.85
11099;BME280;12223;42.650;23.364;2023-03-13T07:03:21;95250.25;;;14.66;27.44
11099;BME280;12223;42.650;23.364;2023-03-13T07:05:54;95245.38;;;12.61;29.79
11099;BME280;12223;42.650;23.364;2023-03-13T07:08:21;95234.13;;;11.73;32.13
11099;BME280;12223;42.650;23.364;2023-03-13T07:10:49;95243.03;;;10.64;33.64
11099;BME280;12223;42.650;23.364;2023-03-13T07:13:17;95289.88;;;8.76;36.18
11099;BME280;12223;42.650;23.364;2023-03-13T07:15:46;95254.00;;;7.79;39.42
11099;BME280;12223;42.650;23.364;2023-03-13T07:18:15;95275.28;;;7.20;41.31
11099;BME280;12223;42.650;23.364;2023-03-13T07:20:42;95276.63;;;6.95;42.69
11099;BME280;12223;42.650;23.364;2023-03-13T07:23:09;95272.94;;;6.74;43.92
11099;BME280;12223;42.650;23.364;2023-03-13T07:25:36;95260.16;;;6.71;44.49
11099;BME280;12223;42.650;23.364;2023-03-13T07:28:04;95265.53;;;6.34;45.57
11099;BME280;12223;42.650;23.364;2023-03-13T07:30:31;95269.44;;;6.23;45.77
11099;BME280;12223;42.650;23.364;2023-03-13T07:32:58;95264.97;;;5.72;47.02
11099;BME280;12223;42.650;23.364;2023-03-13T07:35:26;95265.50;;;5.30;49.27
11099;BME280;12223;42.650;23.364;2023-03-13T07:37:53;95270.41;;;5.02;50.35
11099;BME280;12223;42.650;23.364;2023-03-13T07:40:20;95265.53;;;5.21;49.48
11099;BME280;12223;42.650;23.364;2023-03-13T07:42:46;95262.28;;;5.19;49.66
11099;BME280;12223;42.650;23.364;2023-03-13T07:45:26;95271.47;;;5.38;50.27
11099;BME280;12223;42.650;23.364;2023-03-13T07:47:53;95270.28;;;5.63;50.16
11099;BME280;12223;42.650;23.364;2023-03-13T07:50:20;95246.16;;;5.08;50.58
11099;BME280;12223;42.650;23.364;2023-03-13T07:52:48;95274.44;;;4.81;52.31
11099;BME280;12223;42.650;23.364;2023-03-13T07:55:15;95275.53;;;4.95;54.52
11099;BME280;12223;42.650;23.364;2023-03-13T07:57:43;95233.44;;;4.04;55.28
11099;BME280;12223;42.650;23.364;2023-03-13T08:00:11;95267.28;;;4.36;56.24
11099;BME280;12223;42.650;23.364;2023-03-13T08:02:40;95254.69;;;4.40;56.65
11099;BME280;12223;42.650;23.364;2023-03-13T08:05:10;95258.41;;;4.54;57.05
11099;BME280;12223;42.650;23.364;2023-03-13T08:07:37;95251.53;;;4.53;56.76
11099;BME280;12223;42.650;23.364;2023-03-13T08:10:06;95246.53;;;4.74;57.93
11099;BME280;12223;42.650;23.364;2023-03-13T08:12:33;95257.22;;;4.64;57.64
11099;BME280;12223;42.650;23.364;2023-03-13T08:15:00;95241.19;;;4.67;59.12
11099;BME280;12223;42.650;23.364;2023-03-13T08:17:28;95262.09;;;4.67;57.99
11099;BME280;12223;42.650;23.364;2023-03-13T08:19:58;95251.31;;;4.62;58.93
11099;BME280;12223;42.650;23.364;2023-03-13T08:22:24;95250.41;;;4.86;59.28
11099;BME280;12223;42.650;23.364;2023-03-13T08:24:52;95244.72;;;5.05;57.39
11099;BME280;12223;42.650;23.364;2023-03-13T08:27:20;95252.09;;;5.47;55.61
11099;BME280;12223;42.650;23.364;2023-03-13T08:29:47;95212.94;;;5.69;54.57
11099;BME280;12223;42.650;23.364;2023-03-13T08:32:14;95251.06;;;5.71;53.74
11099;BME280;12223;42.650;23.364;2023-03-13T08:34:42;95254.47;;;5.57;53.66
11099;BME280;12223;42.650;23.364;2023-03-13T08:37:14;95258.50;;;5.45;54.30
11099;BME280;12223;42.650;23.364;2023-03-13T08:39:40;95258.91;;;5.34;54.83
11099;BME280;12223;42.650;23.364;2023-03-13T08:42:10;95262.50;;;5.33;54.82
11099;BME280;12223;42.650;23.364;2023-03-13T08:44:40;95262.81;;;5.15;55.55
11099;BME280;12223;42.650;23.364;2023-03-13T08:47:07;95267.63;;;5.03;55.94
11099;BME280;12223;42.650;23.364;2023-03-13T08:49:34;95258.09;;;5.56;54.63
11099;BME280;12223;42.650;23.364;2023-03-13T08:52:02;95239.16;;;5.69;54.60
11099;BME280;12223;42.650;23.364;2023-03-13T08:54:30;95235.72;;;5.45;53.60
11099;BME280;12223;42.650;23.364;2023-03-13T08:56:57;95236.75;;;5.59;53.68
11099;BME280;12223;42.650;23.364;2023-03-13T08:59:24;95242.66;;;5.98;53.10
11099;BME280;12223;42.650;23.364;2023-03-13T09:01:52;95231.25;;;5.91;51.92
11099;BME280;12223;42.650;23.364;2023-03-13T09:04:21;95251.28;;;5.84;51.64
11099;BME280;12223;42.650;23.364;2023-03-13T09:06:47;95241.41;;;5.72;52.14
11099;BME280;12223;42.650;23.364;2023-03-13T09:09:15;95246.53;;;5.65;52.53
11099;BME280;12223;42.650;23.364;2023-03-13T09:11:42;95246.53;;;5.88;52.83
11099;BME280;12223;42.650;23.364;2023-03-13T09:14:10;95238.75;;;5.94;52.56
11099;BME280;12223;42.650;23.364;2023-03-13T09:16:38;95240.41;;;5.73;51.73
11099;BME280;12223;42.650;23.364;2023-03-13T09:19:09;95239.06;;;5.77;52.36
11099;BME280;12223;42.650;23.364;2023-03-13T09:21:37;95224.06;;;5.85;53.02
11099;BME280;12223;42.650;23.364;2023-03-13T09:24:06;95228.63;;;6.21;53.23
11099;BME280;12223;42.650;23.364;2023-03-13T09:26:33;95231.91;;;5.93;52.47
11099;BME280;12223;42.650;23.364;2023-03-13T09:29:00;95220.72;;;5.77;52.43
11099;BME280;12223;42.650;23.364;2023-03-13T09:31:29;95222.00;;;5.81;52.53
11099;BME280;12223;42.650;23.364;2023-03-13T09:33:56;95232.28;;;5.68;52.46
11099;BME280;12223;42.650;23.364;2023-03-13T09:36:26;95214.34;;;5.56;52.74
11099;BME280;12223;42.650;23.364;2023-03-13T09:38:55;95233.31;;;5.81;52.50
11099;BME280;12223;42.650;23.364;2023-03-13T09:41:25;95241.66;;;5.62;52.37
11099;BME280;12223;42.650;23.364;2023-03-13T09:43:59;95230.81;;;6.02;51.66
11099;BME280;12223;42.650;23.364;2023-03-13T09:46:32;95233.53;;;6.38;51.28
11099;BME280;12223;42.650;23.364;2023-03-13T09:49:10;95218.31;;;6.84;49.21
11099;BME280;12223;42.650;23.364;2023-03-13T09:51:43;95187.78;;;6.98;48.48
11099;BME280;12223;42.650;23.364;2023-03-13T09:54:23;95229.75;;;7.13;48.03
11099;BME280;12223;42.650;23.364;2023-03-13T09:56:52;95228.16;;;6.97;47.99
11099;BME280;12223;42.650;23.364;2023-03-13T09:59:26;95224.75;;;7.18;48.10
11099;BME280;12223;42.650;23.364;2023-03-13T10:01:58;95102.09;;;6.69;46.57
11099;BME280;12223;42.650;23.364;2023-03-13T10:04:34;95221.13;;;7.89;45.83
11099;BME280;12223;42.650;23.364;2023-03-13T10:07:09;95218.66;;;7.60;46.25
11099;BME280;12223;42.650;23.364;2023-03-13T10:09:36;95210.59;;;7.40;47.73
11099;BME280;12223;42.650;23.364;2023-03-13T10:12:11;95199.16;;;7.05;47.88
11099;BME280;12223;42.650;23.364;2023-03-13T10:14:45;95200.72;;;7.00;47.73
11099;BME280;12223;42.650;23.364;2023-03-13T10:17:21;95208.50;;;7.08;47.79
11099;BME280;12223;42.650;23.364;2023-03-13T10:19:55;95193.34;;;7.31;47.87
11099;BME280;12223;42.650;23.364;2023-03-13T10:22:27;95185.16;;;7.19;47.75
11099;BME280;12223;42.650;23.364;2023-03-13T10:24:59;95172.09;;;7.05;47.62
11099;BME280;12223;42.650;23.364;2023-03-13T10:27:29;95180.50;;;7.21;47.77
11099;BME280;12223;42.650;23.364;2023-03-13T10:29:56;95171.69;;;7.50;48.05
11099;BME280;12223;42.650;23.364;2023-03-13T10:32:22;95161.56;;;7.75;46.61
11099;BME280;12223;42.650;23.364;2023-03-13T10:34:52;95164.91;;;7.62;45.57
11099;BME280;12223;42.650;23.364;2023-03-13T10:37:21;95163.03;;;7.56;46.40
11099;BME280;12223;42.650;23.364;2023-03-13T10:39:50;95165.78;;;7.48;46.72
11099;BME280;12223;42.650;23.364;2023-03-13T10:42:30;95163.16;;;7.48;46.26
11099;BME280;12223;42.650;23.364;2023-03-13T10:45:00;95152.63;;;7.70;46.61
11099;BME280;12223;42.650;23.364;2023-03-13T10:47:31;95146.81;;;7.81;45.87
11099;BME280;12223;42.650;23.364;2023-03-13T10:50:00;95142.50;;;8.01;45.09
11099;BME280;12223;42.650;23.364;2023-03-13T10:52:31;95139.53;;;8.17;45.22
11099;BME280;12223;42.650;23.364;2023-03-13T10:55:01;95129.47;;;8.27;44.39
11099;BME280;12223;42.650;23.364;2023-03-13T10:57:31;95137.53;;;8.19;44.03
11099;BME280;12223;42.650;23.364;2023-03-13T11:00:02;95119.59;;;8.36;44.19
11099;BME280;12223;42.650;23.364;2023-03-13T11:02:36;95130.66;;;8.72;44.26
11099;BME280;12223;42.650;23.364;2023-03-13T11:05:31;95123.31;;;8.61;44.52
11099;BME280;12223;42.650;23.364;2023-03-13T11:08:10;95118.19;;;8.33;44.71
11099;BME280;12223;42.650;23.364;2023-03-13T11:10:50;95078.00;;;8.12;43.75
11099;BME280;12223;42.650;23.364;2023-03-13T11:13:27;95113.47;;;8.29;43.76
11099;BME280;12223;42.650;23.364;2023-03-13T11:15:57;95100.00;;;8.04;44.25
11099;BME280;12223;42.650;23.364;2023-03-13T11:18:31;95108.41;;;8.21;44.92
11099;BME280;12223;42.650;23.364;2023-03-13T11:21:03;95104.03;;;8.41;43.83
11099;BME280;12223;42.650;23.364;2023-03-13T11:23:35;95102.72;;;8.24;43.88
11099;BME280;12223;42.650;23.364;2023-03-13T11:26:11;95097.91;;;8.27;43.57
11099;BME280;12223;42.650;23.364;2023-03-13T11:28:49;95083.50;;;8.30;43.56
11099;BME280;12223;42.650;23.364;2023-03-13T11:31:21;95080.22;;;8.75;43.66
11099;BME280;12223;42.650;23.364;2023-03-13T11:33:57;95085.31;;;8.90;43.93
11099;BME280;12223;42.650;23.364;2023-03-13T11:36:32;95086.13;;;8.91;42.77
11099;BME280;12223;42.650;23.364;2023-03-13T11:39:05;95084.53;;;9.03;43.69
11099;BME280;12223;42.650;23.364;2023-03-13T11:41:51;95073.16;;;9.09;42.88
11099;BME280;12223;42.650;23.364;2023-03-13T11:44:29;95076.81;;;9.21;42.12
11099;BME280;12223;42.650;23.364;2023-03-13T11:47:11;95062.00;;;9.40;42.41
11099;BME280;12223;42.650;23.364;2023-03-13T11:50:11;95044.75;;;9.50;41.60
11099;BME280;12223;42.650;23.364;2023-03-13T11:52:50;95041.47;;;9.61;41.29
11099;BME280;12223;42.650;23.364;2023-03-13T11:55:30;95048.38;;;9.62;40.84
11099;BME280;12223;42.650;23.364;2023-03-13T11:58:19;95043.72;;;9.58;41.39
11099;BME280;12223;42.650;23.364;2023-03-13T12:00:57;95025.47;;;9.56;41.01
11099;BME280;12223;42.650;23.364;2023-03-13T12:03:32;95033.66;;;9.93;41.10
11099;BME280;12223;42.650;23.364;2023-03-13T12:06:02;95016.78;;;10.00;40.70
11099;BME280;12223;42.650;23.364;2023-03-13T12:08:35;95019.22;;;10.02;40.52
11099;BME280;12223;42.650;23.364;2023-03-13T12:11:10;95024.56;;;9.82;40.74
11099;BME280;12223;42.650;23.364;2023-03-13T12:13:43;94997.56;;;9.87;41.25
11099;BME280;12223;42.650;23.364;2023-03-13T12:16:16;94994.91;;;9.93;41.32
11099;BME280;12223;42.650;23.364;2023-03-13T12:18:45;95002.72;;;10.20;40.74
11099;BME280;12223;42.650;23.364;2023-03-13T12:21:20;95002.53;;;10.15;40.36
11099;BME280;12223;42.650;23.364;2023-03-13T12:24:00;94980.63;;;10.07;40.22
11099;BME280;12223;42.650;23.364;2023-03-13T12:26:34;94987.66;;;10.27;39.84
11099;BME280;12223;42.650;23.364;2023-03-13T12:29:13;94992.31;;;10.31;39.88
11099;BME280;12223;42.650;23.364;2023-03-13T12:31:46;94979.94;;;10.25;40.17
11099;BME280;12223;42.650;23.364;2023-03-13T12:34:19;94993.38;;;10.24;40.08
11099;BME280;12223;42.650;23.364;2023-03-13T12:36:50;94982.63;;;10.12;40.13
11099;BME280;12223;42.650;23.364;2023-03-13T12:39:25;94995.63;;;10.20;39.84
11099;BME280;12223;42.650;23.364;2023-03-13T12:44:51;94855.22;;;8.71;40.18
11099;BME280;12223;42.650;23.364;2023-03-13T12:47:24;94986.22;;;9.86;40.41
11099;BME280;12223;42.650;23.364;2023-03-13T12:50:14;94991.31;;;9.81;40.47
11099;BME280;12223;42.650;23.364;2023-03-13T12:53:09;94986.97;;;10.00;39.83
11099;BME280;12223;42.650;23.364;2023-03-13T12:59:07;94998.78;;;9.91;40.15
11099;BME280;12223;42.650;23.364;2023-03-13T13:01:40;94990.47;;;9.87;40.54
11099;BME280;12223;42.650;23.364;2023-03-13T13:04:13;94999.50;;;10.18;39.74
11099;BME280;12223;42.650;23.364;2023-03-13T13:06:51;95003.72;;;10.57;39.26
11099;BME280;12223;42.650;23.364;2023-03-13T13:09:22;94994.53;;;10.91;38.65
11099;BME280;12223;42.650;23.364;2023-03-13T13:11:51;94979.56;;;10.84;38.83
11099;BME280;12223;42.650;23.364;2023-03-13T13:15:02;94995.75;;;10.63;39.35